Terminal Aerodrome Forecast
Issued by NWS

Home | Current Version | Previous Version | Text Only | Print | Product List | Glossary On
Versions: 1 2 3 4 5 6 7 8 9 10 11 12 13 14 15 16 17 18 19 20 21 22 23 24 25 26
647
FTUS46 KPDT 141814 AAA
TAFALW
TAF AMD
KALW 141814Z 1418/1518 19012KT P6SM -RA BKN025 OVC040
     FM142000 20012KT P6SM VCSH SCT050 OVC080
     FM150100 20013G20KT P6SM -RA BKN030 OVC060
     FM150600 21015G25KT P6SM VCSH BKN050 OVC120
     FM151500 20015G25KT P6SM SCT050 BKN120=

USA.gov is the U.S. government's official web portal to all federal, state and local government web resources and services.